Time;durP1;ratioP1;P1;durP2;ratioP2;P2;SDS_P1;SDS_P2;PMS_P1;PMS_P2;Temp;Humidity;BMP_temperature;BMP_pressure;BME280_temperature;BME280_humidity;BME280_pressure;Samples;Min_cycle;Max_cycle;Signal;HPM_P1;HPM_P2
2023/12/14 00:00:24;;;;;;;34.87;17.03;;;;;;;2.75;94.78;99354.13;5083338;28;20547;-58
2023/12/14 00:02:52;;;;;;;29.10;16.73;;;;;;;2.73;95.40;99371.09;5089795;28;20211;-62
2023/12/14 00:05:20;;;;;;;30.73;17.50;;;;;;;2.72;94.94;99371.06;5094174;28;20293;-59
2023/12/14 00:07:49;;;;;;;34.97;18.73;;;;;;;2.69;95.67;99368.47;5091652;28;20232;-55
2023/12/14 00:10:18;;;;;;;30.00;17.53;;;;;;;2.70;95.29;99373.59;5085441;28;20914;-58
2023/12/14 00:12:46;;;;;;;39.77;21.50;;;;;;;2.71;96.00;99382.06;5081587;28;20205;-57
2023/12/14 00:15:14;;;;;;;30.20;17.27;;;;;;;2.71;96.02;99377.84;5081815;28;20209;-57
2023/12/14 00:17:42;;;;;;;34.43;18.67;;;;;;;2.71;95.05;99382.06;5084135;28;20205;-58
2023/12/14 00:20:11;;;;;;;34.77;19.50;;;;;;;2.66;95.28;99382.03;5076400;28;20211;-58
2023/12/14 00:22:39;;;;;;;36.97;18.87;;;;;;;2.65;95.63;99380.31;5079733;28;20698;-57
2023/12/14 00:25:08;;;;;;;34.90;18.50;;;;;;;2.68;95.77;99382.88;5079372;28;20663;-63
2023/12/14 00:27:36;;;;;;;33.70;19.53;;;;;;;2.66;96.35;99385.44;5086240;28;20213;-59
2023/12/14 00:30:06;;;;;;;34.83;18.70;;;;;;;2.63;95.16;99387.94;5083537;28;20233;-61
2023/12/14 00:32:34;;;;;;;32.73;17.87;;;;;;;2.63;95.58;99392.19;5085309;28;20240;-58
2023/12/14 00:35:02;;;;;;;31.80;18.60;;;;;;;2.63;95.52;99389.63;5086990;28;20718;-58
2023/12/14 00:37:30;;;;;;;34.63;17.77;;;;;;;2.62;96.22;99386.25;5085686;28;20201;-56
2023/12/14 00:39:58;;;;;;;34.27;17.63;;;;;;;2.59;95.29;99396.38;5085124;28;20221;-57
2023/12/14 00:42:27;;;;;;;33.07;17.70;;;;;;;2.57;96.15;99402.28;5085006;28;20629;-57
2023/12/14 00:44:55;;;;;;;31.07;18.17;;;;;;;2.52;95.49;99398.84;5085082;28;20201;-58
2023/12/14 00:47:23;;;;;;;35.80;18.73;;;;;;;2.49;95.79;99406.44;5086387;28;20255;-59
2023/12/14 00:49:51;;;;;;;28.17;17.03;;;;;;;2.46;95.93;99414.03;5084301;28;20205;-63
2023/12/14 00:52:19;;;;;;;32.77;17.70;;;;;;;2.45;96.52;99417.41;5086282;28;20208;-57
2023/12/14 00:54:47;;;;;;;31.10;16.77;;;;;;;2.42;95.81;99414.00;5086176;28;20615;-58
2023/12/14 00:57:15;;;;;;;31.80;17.27;;;;;;;2.45;96.69;99414.88;5087889;28;20193;-60
2023/12/14 00:59:45;;;;;;;31.07;16.30;;;;;;;2.45;95.95;99418.28;5080985;28;20215;-58
2023/12/14 01:02:13;;;;;;;30.20;16.23;;;;;;;2.43;95.90;99417.41;5087347;28;20243;-59
2023/12/14 01:04:41;;;;;;;29.77;16.00;;;;;;;2.41;96.02;99417.38;5082180;28;20692;-57
2023/12/14 01:07:10;;;;;;;33.13;17.50;;;;;;;2.37;96.34;99415.66;5087123;28;20200;-63
2023/12/14 01:09:38;;;;;;;30.90;17.47;;;;;;;2.36;96.68;99413.94;5086423;28;20213;-60
2023/12/14 01:12:06;;;;;;;28.50;15.93;;;;;;;2.34;96.89;99414.75;5091391;28;20282;-58
2023/12/14 01:14:34;;;;;;;30.20;16.70;;;;;;;2.34;96.47;99425.78;5091768;28;20204;-58
2023/12/14 01:17:04;;;;;;;29.17;16.03;;;;;;;2.33;96.69;99415.59;5084660;28;20201;-57
2023/12/14 01:19:32;;;;;;;26.70;15.03;;;;;;;2.33;97.14;99424.06;5088673;28;20300;-58
2023/12/14 01:21:59;;;;;;;29.97;16.73;;;;;;;2.30;96.26;99424.03;5088223;28;20323;-57
2023/12/14 01:24:27;;;;;;;28.07;15.50;;;;;;;2.28;96.36;99425.69;5089165;28;20292;-57
2023/12/14 01:26:55;;;;;;;29.37;15.90;;;;;;;2.29;97.08;99416.41;5081611;28;20571;-57
2023/12/14 01:29:23;;;;;;;29.60;15.30;;;;;;;2.28;97.41;99410.44;5087458;28;20239;-58
2023/12/14 01:31:51;;;;;;;29.23;15.40;;;;;;;2.28;97.54;99415.53;5081710;28;20329;-56
2023/12/14 01:34:20;;;;;;;27.00;15.10;;;;;;;2.30;97.48;99413.00;5092397;28;20204;-57
2023/12/14 01:36:48;;;;;;;29.87;15.43;;;;;;;2.28;97.22;99405.34;5091873;28;20207;-60
2023/12/14 01:39:16;;;;;;;29.33;16.83;;;;;;;2.29;97.25;99412.16;5090289;28;20571;-59
2023/12/14 01:41:44;;;;;;;28.20;16.50;;;;;;;2.32;97.27;99409.66;5085753;28;20211;-58
2023/12/14 01:44:12;;;;;;;27.03;15.10;;;;;;;2.33;97.41;99413.06;5084437;28;20205;-58
2023/12/14 01:46:40;;;;;;;30.50;16.23;;;;;;;2.35;97.74;99413.91;5088654;28;20197;-57
2023/12/14 01:49:08;;;;;;;29.73;15.63;;;;;;;2.35;97.51;99417.31;5088982;28;20675;-55
2023/12/14 01:51:37;;;;;;;31.43;15.90;;;;;;;2.37;97.51;99415.66;5081210;28;20196;-57
2023/12/14 01:54:05;;;;;;;29.53;15.83;;;;;;;2.38;97.34;99411.41;5084752;28;20201;-58
2023/12/14 01:56:33;;;;;;;30.70;15.00;;;;;;;2.39;97.76;99418.19;5080906;28;20224;-57
2023/12/14 01:59:01;;;;;;;28.23;15.33;;;;;;;2.37;97.40;99409.72;5089173;28;20197;-58
2023/12/14 02:01:36;;;;;;;35.87;16.60;;;;;;;2.38;97.26;99408.88;5083896;28;20719;-58
2023/12/14 02:04:07;;;;;;;31.33;15.40;;;;;;;2.37;97.33;99410.56;5080216;28;20291;-56
2023/12/14 02:06:36;;;;;;;28.73;15.50;;;;;;;2.37;97.58;99408.00;5091293;28;20209;-58
2023/12/14 02:09:04;;;;;;;32.23;15.40;;;;;;;2.36;97.65;99403.78;5088236;28;20208;-58
2023/12/14 02:11:32;;;;;;;33.47;15.17;;;;;;;2.32;96.97;99413.88;5085146;28;20194;-58
2023/12/14 02:14:04;;;;;;;30.23;15.20;;;;;;;2.34;98.00;99410.53;5087566;28;20193;-58
2023/12/14 02:16:33;;;;;;;32.13;16.80;;;;;;;2.36;98.13;99411.41;5085260;28;20295;-58
2023/12/14 02:19:01;;;;;;;28.50;15.27;;;;;;;2.38;97.34;99406.31;5087970;28;20201;-60
2023/12/14 02:21:29;;;;;;;33.33;17.00;;;;;;;2.38;97.54;99404.63;5088999;28;20200;-58
2023/12/14 02:23:58;;;;;;;32.27;15.63;;;;;;;2.41;97.60;99399.59;5090876;28;20670;-57
2023/12/14 02:26:26;;;;;;;33.80;16.57;;;;;;;2.41;96.85;99403.81;5085845;28;20212;-56
2023/12/14 02:28:54;;;;;;;34.40;15.40;;;;;;;2.39;97.29;99402.94;5082907;28;20599;-60
2023/12/14 02:31:23;;;;;;;32.73;16.30;;;;;;;2.35;96.94;99401.19;5080023;28;20203;-59
2023/12/14 02:33:51;;;;;;;39.33;17.53;;;;;;;2.34;97.24;99400.34;5084741;28;20226;-58
2023/12/14 02:36:19;;;;;;;32.80;16.27;;;;;;;2.33;97.36;99398.66;5085162;28;20258;-59
2023/12/14 02:38:48;;;;;;;35.27;16.73;;;;;;;2.34;98.05;99399.50;5083669;28;20207;-57
2023/12/14 02:41:17;;;;;;;34.33;16.07;;;;;;;2.32;97.29;99396.06;5085947;28;20253;-56
2023/12/14 02:43:45;;;;;;;36.10;16.30;;;;;;;2.27;97.01;99393.50;5087809;28;20213;-60
2023/12/14 02:46:15;;;;;;;35.87;16.37;;;;;;;2.23;98.10;99390.91;5077124;28;20212;-56
2023/12/14 02:48:43;;;;;;;37.13;15.80;;;;;;;2.22;98.04;99394.28;5084876;28;20213;-58
2023/12/14 02:51:14;;;;;;;37.23;16.57;;;;;;;2.21;98.49;99405.25;5087312;28;20204;-58
2023/12/14 02:53:43;;;;;;;37.37;16.93;;;;;;;2.21;98.20;99398.53;5087272;28;20602;-59
2023/12/14 02:56:11;;;;;;;38.10;17.33;;;;;;;2.22;97.76;99400.22;5085803;28;20207;-58
2023/12/14 02:58:41;;;;;;;31.87;15.40;;;;;;;2.20;98.17;99406.13;5085115;28;20615;-56
2023/12/14 03:01:08;;;;;;;36.73;16.90;;;;;;;2.17;98.34;99409.47;5087298;28;20205;-56
2023/12/14 03:03:39;;;;;;;41.07;18.50;;;;;;;2.17;97.90;99406.91;5083784;28;20219;-59
2023/12/14 03:06:07;;;;;;;39.87;17.60;;;;;;;2.19;98.75;99412.88;5090632;28;20650;-58
2023/12/14 03:08:35;;;;;;;35.10;17.50;;;;;;;2.20;98.72;99416.28;5090515;28;20218;-58
2023/12/14 03:11:03;;;;;;;32.63;17.00;;;;;;;2.22;98.20;99418.00;5085082;28;20643;-59
2023/12/14 03:13:31;;;;;;;32.37;16.20;;;;;;;2.22;98.82;99420.56;5088977;28;20200;-58
2023/12/14 03:16:01;;;;;;;36.90;17.20;;;;;;;2.28;98.69;99432.47;5086793;28;20200;-58
2023/12/14 03:18:29;;;;;;;35.87;16.70;;;;;;;2.32;98.11;99430.00;5086571;28;20201;-56
2023/12/14 03:20:57;;;;;;;37.23;16.63;;;;;;;2.33;98.51;99429.16;5082508;28;20643;-58
2023/12/14 03:23:25;;;;;;;35.90;16.57;;;;;;;2.34;97.69;99435.94;5091639;28;20258;-56
2023/12/14 03:25:53;;;;;;;33.70;17.27;;;;;;;2.35;98.00;99437.63;5093118;28;20659;-58
2023/12/14 03:28:20;;;;;;;35.87;16.70;;;;;;;2.36;97.26;99439.38;5087417;28;20216;-57
2023/12/14 03:30:48;;;;;;;32.37;15.73;;;;;;;2.36;96.91;99438.53;5092290;28;20208;-57
2023/12/14 03:33:18;;;;;;;30.03;14.80;;;;;;;2.33;97.11;99441.88;5088592;28;20277;-57
2023/12/14 03:35:46;;;;;;;29.23;14.93;;;;;;;2.31;96.54;99442.69;5094271;28;20568;-58
2023/12/14 03:38:14;;;;;;;29.17;14.23;;;;;;;2.27;95.70;99449.41;5089807;28;20204;-58
2023/12/14 03:40:42;;;;;;;31.40;14.47;;;;;;;2.25;96.14;99451.09;5087389;28;20204;-57
2023/12/14 03:43:10;;;;;;;27.77;14.23;;;;;;;2.25;96.89;99451.09;5090454;28;20307;-58
2023/12/14 03:45:38;;;;;;;32.10;15.17;;;;;;;2.25;96.23;99448.56;5091653;28;20622;-58
2023/12/14 03:48:06;;;;;;;32.17;14.70;;;;;;;2.24;95.82;99449.38;5082214;28;20197;-59
2023/12/14 03:50:35;;;;;;;32.37;15.47;;;;;;;2.26;96.76;99455.34;5090899;28;20209;-63
2023/12/14 03:53:03;;;;;;;30.60;14.90;;;;;;;2.27;96.26;99451.94;5092756;28;20205;-58
2023/12/14 03:55:31;;;;;;;30.23;15.13;;;;;;;2.27;95.89;99459.56;5087656;28;20236;-59
2023/12/14 03:57:59;;;;;;;27.70;14.37;;;;;;;2.29;96.14;99452.84;5090539;28;20201;-57
2023/12/14 04:00:27;;;;;;;32.20;15.57;;;;;;;2.27;95.79;99454.50;5093791;28;20277;-58
2023/12/14 04:02:55;;;;;;;32.83;15.60;;;;;;;2.26;95.16;99457.88;5086642;28;20242;-58
2023/12/14 04:05:24;;;;;;;33.53;16.20;;;;;;;2.26;96.27;99457.03;5092438;28;20283;-58
2023/12/14 04:07:53;;;;;;;30.93;15.30;;;;;;;2.25;96.11;99461.25;5092899;28;20295;-56
2023/12/14 04:10:21;;;;;;;33.97;14.93;;;;;;;2.23;95.62;99457.84;5087513;28;20338;-58
2023/12/14 04:12:49;;;;;;;29.97;14.97;;;;;;;2.27;95.54;99466.34;5083634;28;20208;-59
2023/12/14 04:15:17;;;;;;;27.67;14.30;;;;;;;2.28;95.42;99466.34;5085414;28;20192;-60
2023/12/14 04:17:45;;;;;;;30.87;14.93;;;;;;;2.27;95.74;99468.91;5083470;28;20201;-58
2023/12/14 04:20:15;;;;;;;36.60;16.20;;;;;;;2.28;95.91;99476.53;5087634;28;20235;-58
2023/12/14 04:22:44;;;;;;;32.80;16.60;;;;;;;2.28;95.11;99475.69;5093302;28;20251;-55
2023/12/14 04:25:13;;;;;;;29.27;14.67;;;;;;;2.29;96.04;99472.31;5090615;28;20201;-58
2023/12/14 04:27:41;;;;;;;29.00;14.17;;;;;;;2.28;95.68;99476.53;5094038;28;20232;-58
2023/12/14 04:30:10;;;;;;;29.73;14.83;;;;;;;2.28;95.59;99473.97;5091778;28;20239;-58
2023/12/14 04:32:38;;;;;;;27.10;14.30;;;;;;;2.27;95.86;99471.44;5088456;28;20268;-62
2023/12/14 04:35:08;;;;;;;27.97;14.17;;;;;;;2.27;95.12;99477.38;5093308;28;20211;-56
2023/12/14 04:37:36;;;;;;;28.17;13.40;;;;;;;2.28;95.89;99478.22;5084298;28;20212;-56
2023/12/14 04:40:05;;;;;;;28.93;14.13;;;;;;;2.26;95.57;99475.66;5089799;28;20197;-57
2023/12/14 04:42:35;;;;;;;27.30;13.73;;;;;;;2.26;94.83;99485.84;5089535;28;20674;-59
2023/12/14 04:45:04;;;;;;;27.37;14.33;;;;;;;2.25;95.02;99496.84;5091390;28;20692;-57
2023/12/14 04:47:32;;;;;;;25.60;13.13;;;;;;;2.24;95.55;99491.72;5087921;28;20228;-59
2023/12/14 04:50:01;;;;;;;30.13;14.23;;;;;;;2.23;94.98;99487.50;5085683;28;20245;-58
2023/12/14 04:52:29;;;;;;;28.40;14.57;;;;;;;2.22;95.78;99498.50;5090274;28;20716;-56
2023/12/14 04:54:57;;;;;;;25.83;13.80;;;;;;;2.23;95.48;99495.97;5090850;28;20273;-58
2023/12/14 04:57:25;;;;;;;31.00;16.07;;;;;;;2.22;95.24;99506.13;5093103;28;20209;-58
2023/12/14 04:59:54;;;;;;;32.30;14.37;;;;;;;2.22;95.33;99509.50;5093836;28;20197;-58
2023/12/14 05:02:22;;;;;;;29.07;14.83;;;;;;;2.22;96.10;99506.13;5085352;28;20197;-58
2023/12/14 05:04:50;;;;;;;34.87;15.70;;;;;;;2.20;96.12;99513.69;5088863;28;20575;-59
2023/12/14 05:07:18;;;;;;;34.57;16.43;;;;;;;2.19;95.61;99512.00;5082077;28;20211;-59
2023/12/14 05:09:46;;;;;;;35.03;17.23;;;;;;;2.19;96.46;99514.53;5090212;28;20750;-57
2023/12/14 05:12:13;;;;;;;33.17;15.97;;;;;;;2.17;96.05;99521.28;5093127;28;20215;-58
2023/12/14 05:14:41;;;;;;;32.27;15.20;;;;;;;2.17;95.49;99526.38;5086962;28;20318;-57
2023/12/14 05:17:11;;;;;;;31.03;14.40;;;;;;;2.18;95.82;99530.63;5078544;28;20286;-58
2023/12/14 05:19:39;;;;;;;35.67;15.90;;;;;;;2.18;95.42;99530.63;5078944;28;20205;-58
2023/12/14 05:22:07;;;;;;;30.30;15.47;;;;;;;2.20;96.33;99540.81;5082091;28;20205;-58
2023/12/14 05:24:35;;;;;;;29.40;16.37;;;;;;;2.23;95.70;99540.84;5085874;28;20197;-57
2023/12/14 05:27:03;;;;;;;35.87;16.07;;;;;;;2.22;95.87;99547.63;5079729;28;20205;-59
2023/12/14 05:29:32;;;;;;;29.63;15.13;;;;;;;2.24;95.97;99550.19;5091269;28;20604;-58
2023/12/14 05:32:00;;;;;;;30.83;14.73;;;;;;;2.24;95.43;99553.56;5082526;28;20540;-56
2023/12/14 05:34:30;;;;;;;30.77;15.30;;;;;;;2.27;95.23;99555.31;5092282;28;20254;-59
2023/12/14 05:36:57;;;;;;;27.40;14.33;;;;;;;2.28;95.70;99562.09;5087227;28;20615;-57
2023/12/14 05:39:26;;;;;;;29.27;14.43;;;;;;;2.27;95.15;99562.94;5091581;28;20691;-56
2023/12/14 05:41:53;;;;;;;31.10;15.40;;;;;;;2.28;94.89;99567.19;5091689;28;20239;-59
2023/12/14 05:44:22;;;;;;;32.17;14.90;;;;;;;2.28;95.44;99570.56;5085002;28;20216;-57
2023/12/14 05:46:50;;;;;;;33.17;15.03;;;;;;;2.29;94.78;99579.09;5089009;28;20611;-59
2023/12/14 05:49:18;;;;;;;33.27;16.37;;;;;;;2.31;94.95;99577.41;5084020;28;20284;-57
2023/12/14 05:51:47;;;;;;;34.20;15.70;;;;;;;2.30;94.53;99579.09;5092235;28;20228;-56
2023/12/14 05:54:15;;;;;;;32.63;15.27;;;;;;;2.28;94.54;99583.28;5082706;28;20220;-59
2023/12/14 05:56:43;;;;;;;31.93;15.97;;;;;;;2.30;94.67;99591.81;5088178;28;20749;-62
2023/12/14 05:59:11;;;;;;;34.40;16.27;;;;;;;2.30;95.33;99596.03;5089464;28;20200;-58
2023/12/14 06:01:39;;;;;;;31.97;15.57;;;;;;;2.28;94.49;99598.53;5091315;28;20193;-58
2023/12/14 06:04:07;;;;;;;31.70;15.10;;;;;;;2.29;95.38;99599.41;5081967;28;20204;-57
2023/12/14 06:06:35;;;;;;;32.37;16.30;;;;;;;2.31;94.56;99603.66;5087805;28;20212;-57
2023/12/14 06:09:06;;;;;;;29.43;15.83;;;;;;;2.31;95.17;99613.00;5092366;28;20573;-59
2023/12/14 06:11:34;;;;;;;35.03;16.27;;;;;;;2.30;94.70;99614.69;5083797;28;20217;-58
2023/12/14 06:14:02;;;;;;;31.20;16.43;;;;;;;2.25;94.51;99613.78;5082678;28;20562;-60
2023/12/14 06:16:30;;;;;;;30.67;15.80;;;;;;;2.21;95.12;99617.09;5081514;28;20306;-58
2023/12/14 06:18:58;;;;;;;33.17;16.50;;;;;;;2.19;95.51;99623.84;5088067;28;20311;-59
2023/12/14 06:21:28;;;;;;;32.93;15.73;;;;;;;2.21;94.81;99631.47;5086219;28;20711;-58
2023/12/14 06:23:56;;;;;;;40.03;18.03;;;;;;;2.22;95.35;99626.44;5088515;28;20201;-60
2023/12/14 06:26:26;;;;;;;30.67;15.87;;;;;;;2.22;94.81;99633.19;5081332;28;20232;-58
2023/12/14 06:28:54;;;;;;;35.90;16.77;;;;;;;2.23;95.42;99633.22;5086196;28;20246;-57
2023/12/14 06:31:22;;;;;;;30.93;16.37;;;;;;;2.24;96.03;99634.91;5079433;28;20249;-61
2023/12/14 06:33:50;;;;;;;33.27;16.00;;;;;;;2.23;95.57;99643.38;5084850;28;20262;-58
2023/12/14 06:36:18;;;;;;;26.93;14.87;;;;;;;2.22;95.18;99643.38;5092173;28;20541;-58
2023/12/14 06:38:46;;;;;;;32.00;16.03;;;;;;;2.23;95.64;99645.91;5091686;28;20205;-56
2023/12/14 06:41:21;;;;;;;29.40;15.87;;;;;;;2.23;94.91;99643.38;5092029;28;20208;-57
2023/12/14 06:43:50;;;;;;;33.50;17.00;;;;;;;2.24;94.52;99647.63;5082490;28;20208;-58
2023/12/14 06:46:19;;;;;;;29.40;14.27;;;;;;;2.22;95.38;99654.38;5091623;28;20333;-59
2023/12/14 06:48:47;;;;;;;28.40;14.80;;;;;;;2.22;94.54;99654.38;5088784;28;20302;-58
2023/12/14 06:51:15;;;;;;;26.03;13.70;;;;;;;2.18;94.92;99661.09;5090348;28;20217;-59
2023/12/14 06:53:45;;;;;;;26.53;14.47;;;;;;;2.16;94.94;99655.13;5090654;28;20764;-62
2023/12/14 06:56:14;;;;;;;27.50;13.90;;;;;;;2.15;94.96;99657.66;5091225;28;20197;-58
2023/12/14 06:58:45;;;;;;;30.03;15.53;;;;;;;2.17;94.95;99661.06;5091458;28;20727;-60
2023/12/14 07:01:15;;;;;;;27.97;14.83;;;;;;;2.17;94.19;99666.16;5090223;28;20626;-59
2023/12/14 07:03:44;;;;;;;28.50;14.27;;;;;;;2.18;94.60;99672.97;5084894;28;20211;-60
2023/12/14 07:06:14;;;;;;;28.00;14.40;;;;;;;2.18;94.19;99667.88;5091532;28;20698;-60
2023/12/14 07:08:42;;;;;;;28.80;14.33;;;;;;;2.18;94.47;99670.41;5088696;28;20204;-60
2023/12/14 07:11:11;;;;;;;30.20;16.50;;;;;;;2.17;94.02;99678.84;5084274;28;20675;-60
2023/12/14 07:13:40;;;;;;;28.73;15.93;;;;;;;2.18;94.49;99678.03;5084702;28;20223;-59
2023/12/14 07:16:09;;;;;;;31.97;16.13;;;;;;;2.17;94.57;99674.66;5087195;28;20212;-60
2023/12/14 07:18:41;;;;;;;28.70;14.80;;;;;;;2.17;94.59;99676.31;5082915;28;20201;-57
2023/12/14 07:21:10;;;;;;;30.63;14.97;;;;;;;2.17;93.96;99681.41;5088188;28;20674;-60
2023/12/14 07:23:38;;;;;;;30.57;15.90;;;;;;;2.21;94.69;99683.19;5085998;28;20205;-56
2023/12/14 07:26:06;;;;;;;33.57;15.63;;;;;;;2.22;94.66;99679.81;5087598;28;20309;-60
2023/12/14 07:28:35;;;;;;;30.43;15.37;;;;;;;2.26;94.94;99686.66;5091146;28;20273;-59
2023/12/14 07:31:03;;;;;;;26.63;14.87;;;;;;;2.27;94.68;99682.41;5090387;28;20235;-59
2023/12/14 07:33:31;;;;;;;28.63;15.83;;;;;;;2.27;94.01;99685.81;5083879;28;20222;-62
2023/12/14 07:36:01;;;;;;;29.43;15.90;;;;;;;2.30;94.25;99685.84;5084534;28;20196;-60
2023/12/14 07:38:29;;;;;;;27.57;15.27;;;;;;;2.29;94.14;99690.94;5090156;28;20208;-60
2023/12/14 07:40:57;;;;;;;27.40;15.50;;;;;;;2.27;93.40;99688.34;5090494;28;20201;-59
2023/12/14 07:43:25;;;;;;;28.07;14.83;;;;;;;2.30;93.38;99696.03;5077423;28;20212;-62
2023/12/14 07:45:53;;;;;;;28.67;15.73;;;;;;;2.26;93.40;99689.19;5083979;28;20200;-58
2023/12/14 07:48:24;;;;;;;31.33;16.47;;;;;;;2.26;93.54;99685.78;5087150;28;20200;-59
2023/12/14 07:50:52;;;;;;;28.87;14.90;;;;;;;2.27;94.04;99690.88;5080093;28;20216;-60
2023/12/14 07:53:24;;;;;;;26.83;13.70;;;;;;;2.29;93.11;99696.00;5076517;28;20296;-59
2023/12/14 07:55:52;;;;;;;31.47;15.47;;;;;;;2.32;93.18;99696.03;5080941;28;20224;-59
2023/12/14 07:58:21;;;;;;;24.03;13.67;;;;;;;2.33;93.13;99702.84;5085030;28;20288;-58
2023/12/14 08:00:49;;;;;;;29.23;15.60;;;;;;;2.33;93.42;99703.72;5080106;28;20200;-59
2023/12/14 08:03:17;;;;;;;31.80;15.17;;;;;;;2.34;93.04;99718.13;5082365;28;20209;-56
2023/12/14 08:05:45;;;;;;;29.00;15.93;;;;;;;2.36;92.37;99721.56;5082994;28;20201;-60
2023/12/14 08:08:13;;;;;;;31.67;16.73;;;;;;;2.39;93.19;99729.25;5083005;28;20735;-57
2023/12/14 08:10:42;;;;;;;25.67;14.87;;;;;;;2.46;93.28;99725.09;5087451;28;20612;-60
2023/12/14 08:13:10;;;;;;;29.17;15.57;;;;;;;2.49;93.41;99737.00;5086759;28;20262;-57
2023/12/14 08:15:38;;;;;;;28.43;16.43;;;;;;;2.54;92.94;99732.84;5084026;28;20540;-60
2023/12/14 08:18:07;;;;;;;30.40;16.10;;;;;;;2.57;92.91;99743.91;5079536;28;20227;-58
2023/12/14 08:20:35;;;;;;;32.13;17.07;;;;;;;2.57;92.17;99732.88;5089036;28;20263;-58
2023/12/14 08:23:03;;;;;;;30.20;16.10;;;;;;;2.61;91.95;99744.81;5077917;28;20282;-59
2023/12/14 08:25:31;;;;;;;31.97;16.20;;;;;;;2.63;91.98;99749.09;5089534;28;20667;-58
2023/12/14 08:28:01;;;;;;;31.47;15.97;;;;;;;2.60;91.41;99748.19;5094432;28;20205;-60
2023/12/14 08:30:32;;;;;;;32.50;16.23;;;;;;;2.61;91.80;99760.97;5090591;28;20260;-62
2023/12/14 08:33:00;;;;;;;29.43;16.47;;;;;;;2.60;91.43;99764.31;5087649;28;20208;-62
2023/12/14 08:35:28;;;;;;;34.20;16.30;;;;;;;2.60;92.47;99771.94;5085909;28;20231;-61
2023/12/14 08:37:56;;;;;;;30.63;15.97;;;;;;;2.60;91.68;99773.63;5091209;28;20208;-58
2023/12/14 08:40:24;;;;;;;30.23;16.20;;;;;;;2.57;92.13;99774.44;5085206;28;20271;-62
2023/12/14 08:42:53;;;;;;;26.47;15.27;;;;;;;2.58;91.71;99775.31;5089304;28;20202;-56
2023/12/14 08:45:22;;;;;;;28.77;15.00;;;;;;;2.58;91.75;99777.84;5088419;28;20291;-58
2023/12/14 08:47:50;;;;;;;32.73;14.40;;;;;;;2.56;92.50;99782.03;5086517;28;20215;-59
2023/12/14 08:50:18;;;;;;;32.40;15.00;;;;;;;2.58;92.70;99785.47;5083458;28;20201;-59
2023/12/14 08:52:46;;;;;;;30.93;15.87;;;;;;;2.61;92.40;99793.13;5088716;28;20581;-58
2023/12/14 08:55:15;;;;;;;30.17;15.17;;;;;;;2.57;91.76;99793.91;5080482;28;20287;-59
2023/12/14 08:57:43;;;;;;;34.53;17.00;;;;;;;2.57;92.30;99802.41;5092887;28;20251;-60
2023/12/14 09:00:12;;;;;;;32.03;16.07;;;;;;;2.55;92.22;99795.59;5081383;28;20211;-59
2023/12/14 09:02:41;;;;;;;32.47;14.90;;;;;;;2.54;92.34;99801.50;5088857;28;20197;-61
2023/12/14 09:05:10;;;;;;;32.20;16.77;;;;;;;2.58;92.77;99809.22;5082031;28;20300;-61
2023/12/14 09:07:41;;;;;;;32.27;16.47;;;;;;;2.59;92.17;99812.63;5086613;28;20204;-58
2023/12/14 09:10:10;;;;;;;28.77;15.40;;;;;;;2.55;92.48;99808.31;5091866;28;20243;-59
2023/12/14 09:12:38;;;;;;;28.57;14.17;;;;;;;2.50;93.11;99808.22;5082549;28;20225;-62
2023/12/14 09:15:07;;;;;;;24.27;12.67;;;;;;;2.53;92.27;99807.41;5089735;28;20206;-61
2023/12/14 09:17:35;;;;;;;26.07;12.80;;;;;;;2.55;92.56;99809.16;5088090;28;20660;-66
2023/12/14 09:20:08;;;;;;;22.67;11.60;;;;;;;2.55;92.30;99821.03;5092487;28;20210;-61
2023/12/14 09:22:36;;;;;;;26.13;12.60;;;;;;;2.60;92.17;99821.94;5092318;28;20639;-60
2023/12/14 09:25:05;;;;;;;25.27;12.60;;;;;;;2.60;92.03;99820.25;5089489;28;20196;-60
2023/12/14 09:27:33;;;;;;;25.23;12.97;;;;;;;2.61;91.77;99822.00;5087460;28;20197;-61
2023/12/14 09:30:01;;;;;;;22.53;12.63;;;;;;;2.61;91.52;99829.63;5083399;28;20768;-61
2023/12/14 09:32:29;;;;;;;25.23;12.47;;;;;;;2.64;92.51;99832.19;5087148;28;20301;-59
2023/12/14 09:34:58;;;;;;;22.80;11.90;;;;;;;2.67;92.29;99828.84;5079998;28;20298;-58
2023/12/14 09:37:28;;;;;;;21.40;11.90;;;;;;;2.71;91.54;99833.16;5090462;28;20678;-60
2023/12/14 09:39:56;;;;;;;22.20;11.60;;;;;;;2.71;91.02;99835.72;5084016;28;20208;-59
2023/12/14 09:42:23;;;;;;;21.30;11.63;;;;;;;2.72;91.50;99834.00;5085634;28;20203;-59
2023/12/14 09:44:53;;;;;;;20.60;11.67;;;;;;;2.73;90.57;99828.97;5086232;28;20370;-61
2023/12/14 09:47:21;;;;;;;22.10;11.50;;;;;;;2.72;90.07;99837.41;5083157;28;20217;-60
2023/12/14 09:49:50;;;;;;;22.40;11.60;;;;;;;2.71;89.99;99832.31;5083927;28;20666;-62
2023/12/14 09:52:18;;;;;;;18.13;10.23;;;;;;;2.68;90.23;99828.03;5080932;28;20213;-62
2023/12/14 09:54:47;;;;;;;18.57;10.13;;;;;;;2.71;90.14;99837.41;5081317;28;20217;-59
2023/12/14 09:57:15;;;;;;;17.93;10.10;;;;;;;2.74;89.91;99832.38;5079405;28;20262;-62
2023/12/14 09:59:52;;;;;;;19.70;10.97;;;;;;;2.77;89.70;99837.50;5080520;28;20206;-61
2023/12/14 10:02:20;;;;;;;19.80;11.20;;;;;;;2.80;90.16;99833.34;5081641;28;20192;-58
2023/12/14 10:04:48;;;;;;;22.10;12.30;;;;;;;2.84;89.39;99835.09;5087794;28;20504;-61
2023/12/14 10:07:17;;;;;;;23.60;12.90;;;;;;;2.83;89.88;99832.50;5077422;28;20205;-61
2023/12/14 10:09:45;;;;;;;24.60;13.07;;;;;;;2.83;89.79;99829.97;5083715;28;20259;-61
2023/12/14 10:12:14;;;;;;;26.00;13.60;;;;;;;2.79;89.57;99835.84;5084879;28;20644;-62
2023/12/14 10:14:42;;;;;;;27.97;14.33;;;;;;;2.77;89.41;99829.88;5085107;28;20205;-60
2023/12/14 10:17:18;;;;;;;27.30;15.70;;;;;;;2.78;89.71;99834.13;5083658;28;20267;-59
2023/12/14 10:19:47;;;;;;;31.60;16.83;;;;;;;2.80;90.58;99832.44;5085379;28;20219;-63
2023/12/14 10:22:17;;;;;;;31.57;17.43;;;;;;;2.82;89.92;99835.88;5088063;28;20253;-61
2023/12/14 10:24:46;;;;;;;33.17;18.60;;;;;;;2.84;90.67;99840.19;5088604;28;20205;-60
2023/12/14 10:27:16;;;;;;;32.67;19.00;;;;;;;2.83;89.38;99842.69;5085837;28;20199;-61
2023/12/14 10:29:46;;;;;;;31.53;16.87;;;;;;;2.83;89.74;99842.69;5091535;28;20624;-61
2023/12/14 10:32:14;;;;;;;24.77;13.03;;;;;;;2.83;90.04;99840.13;5086164;28;20228;-60
2023/12/14 10:34:42;;;;;;;23.50;12.80;;;;;;;2.84;90.20;99845.28;5088662;28;20663;-61
2023/12/14 10:37:12;;;;;;;20.87;11.57;;;;;;;2.86;90.11;99853.75;5082174;28;20258;-60
2023/12/14 10:39:43;;;;;;;24.07;12.93;;;;;;;2.86;90.27;99856.31;5090379;28;20208;-59
2023/12/14 10:42:11;;;;;;;24.33;11.10;;;;;;;2.84;90.08;99858.00;5078700;28;20193;-62
2023/12/14 10:44:53;;;;;;;20.07;11.20;;;;;;;2.84;89.83;99858.00;5087131;28;20648;-64
2023/12/14 10:47:27;;;;;;;17.60;10.47;;;;;;;2.84;89.50;99857.13;5070090;28;20304;-59
2023/12/14 10:49:57;;;;;;;24.47;12.23;;;;;;;2.80;89.33;99860.44;5082219;28;20205;-60
2023/12/14 10:52:29;;;;;;;24.90;12.87;;;;;;;2.74;89.91;99861.19;5087430;28;20207;-61
2023/12/14 10:55:04;;;;;;;22.13;11.43;;;;;;;2.71;89.48;99860.28;5080392;28;20247;-60
2023/12/14 10:57:32;;;;;;;22.47;12.20;;;;;;;2.74;90.51;99868.84;5081308;28;20200;-60
2023/12/14 11:00:04;;;;;;;19.13;10.77;;;;;;;2.77;90.27;99873.13;5089673;28;20250;-61
2023/12/14 11:02:40;;;;;;;19.07;10.23;;;;;;;2.79;90.07;99882.47;5082722;28;20205;-60
2023/12/14 11:05:11;;;;;;;21.47;11.53;;;;;;;2.81;90.03;99878.28;5087267;28;20203;-62
2023/12/14 11:07:47;;;;;;;21.10;11.10;;;;;;;2.84;89.95;99878.34;5080515;28;20245;-59
2023/12/14 11:10:22;;;;;;;23.83;12.27;;;;;;;2.86;89.74;99883.44;5080911;28;20650;-61
2023/12/14 11:12:57;;;;;;;22.10;11.33;;;;;;;2.79;89.57;99882.47;5091460;28;20366;-61
2023/12/14 11:15:27;;;;;;;20.40;10.97;;;;;;;2.71;89.89;99891.66;5081604;28;20739;-59
2023/12/14 11:18:28;;;;;;;18.97;10.47;;;;;;;2.66;89.64;99891.59;5084119;28;20197;-59
2023/12/14 11:20:58;;;;;;;25.07;11.27;;;;;;;2.66;90.18;99906.00;4982118;28;20234;-57
2023/12/14 11:23:36;;;;;;;19.90;10.77;;;;;;;2.63;90.68;99906.81;5069178;28;20298;-57
2023/12/14 11:26:06;;;;;;;22.37;11.17;;;;;;;2.63;90.19;99911.88;5086322;28;20224;-58
2023/12/14 11:28:35;;;;;;;20.63;10.70;;;;;;;2.63;90.39;99905.94;5083139;28;20232;-58
2023/12/14 11:31:07;;;;;;;25.20;11.40;;;;;;;2.63;90.31;99916.13;5091260;28;20280;-57